sensor_id;sensor_type;location;lat;lon;timestamp;pressure;altitude;pressure_sealevel;temperature;humidity
76858;BME280;65830;0.000;0.000;2023-04-24T00:02:04;99621.16;;;12.66;51.25
76858;BME280;65830;0.000;0.000;2023-04-24T00:04:32;99619.50;;;12.65;52.93
76858;BME280;65830;0.000;0.000;2023-04-24T00:06:57;99617.81;;;12.64;51.86
76858;BME280;65830;0.000;0.000;2023-04-24T00:09:25;99615.31;;;12.63;51.52
76858;BME280;65830;0.000;0.000;2023-04-24T00:11:51;99607.78;;;12.58;52.03
76858;BME280;65830;0.000;0.000;2023-04-24T00:14:16;99615.41;;;12.53;53.43
76858;BME280;65830;0.000;0.000;2023-04-24T00:20:05;99621.69;;;12.52;53.05
76858;BME280;65830;0.000;0.000;2023-04-24T00:22:49;99617.00;;;12.46;53.31
76858;BME280;65830;0.000;0.000;2023-04-24T00:25:38;99620.81;;;12.43;52.89
76858;BME280;65830;0.000;0.000;2023-04-24T00:28:21;99621.09;;;12.40;53.32
76858;BME280;65830;0.000;0.000;2023-04-24T00:31:15;99619.19;;;12.32;54.63
76858;BME280;65830;0.000;0.000;2023-04-24T00:34:16;99613.84;;;12.32;52.70
76858;BME280;65830;0.000;0.000;2023-04-24T00:36:43;99603.75;;;12.18;54.54
76858;BME280;65830;0.000;0.000;2023-04-24T00:39:09;99603.38;;;12.13;54.08
76858;BME280;65830;0.000;0.000;2023-04-24T00:41:35;99616.69;;;12.13;53.91
76858;BME280;65830;0.000;0.000;2023-04-24T00:48:18;99610.06;;;12.17;53.08
76858;BME280;65830;0.000;0.000;2023-04-24T00:58:21;99621.00;;;12.14;53.89
76858;BME280;65830;0.000;0.000;2023-04-24T01:01:03;99607.84;;;12.12;53.73
76858;BME280;65830;0.000;0.000;2023-04-24T01:04:00;99612.63;;;12.09;53.81
76858;BME280;65830;0.000;0.000;2023-04-24T01:06:27;99612.94;;;12.06;54.32
76858;BME280;65830;0.000;0.000;2023-04-24T01:08:58;99614.91;;;12.04;54.35
76858;BME280;65830;0.000;0.000;2023-04-24T01:11:25;99607.91;;;12.03;55.75
76858;BME280;65830;0.000;0.000;2023-04-24T01:13:58;99609.59;;;12.04;55.10
76858;BME280;65830;0.000;0.000;2023-04-24T01:19:33;99612.84;;;11.98;54.97
76858;BME280;65830;0.000;0.000;2023-04-24T01:22:40;99603.88;;;11.99;55.11
76858;BME280;65830;0.000;0.000;2023-04-24T01:26:01;99598.47;;;11.90;54.37
76858;BME280;65830;0.000;0.000;2023-04-24T01:29:19;99606.72;;;11.87;54.94
76858;BME280;65830;0.000;0.000;2023-04-24T01:31:45;99612.75;;;11.89;54.66
76858;BME280;65830;0.000;0.000;2023-04-24T01:34:20;99613.75;;;11.79;56.45
76858;BME280;65830;0.000;0.000;2023-04-24T01:37:15;99612.59;;;11.81;55.85
76858;BME280;65830;0.000;0.000;2023-04-24T01:40:16;99608.75;;;11.76;56.56
76858;BME280;65830;0.000;0.000;2023-04-24T01:43:06;99612.09;;;11.78;56.26
76858;BME280;65830;0.000;0.000;2023-04-24T01:45:32;99610.53;;;11.75;55.83
76858;BME280;65830;0.000;0.000;2023-04-24T01:47:57;99610.53;;;11.75;56.47
76858;BME280;65830;0.000;0.000;2023-04-24T01:50:23;99602.56;;;11.75;55.14
76858;BME280;65830;0.000;0.000;2023-04-24T01:52:49;99599.22;;;11.73;56.11
76858;BME280;65830;0.000;0.000;2023-04-24T01:55:14;99605.81;;;11.69;56.78
76858;BME280;65830;0.000;0.000;2023-04-24T01:57:40;99607.78;;;11.67;57.21
76858;BME280;65830;0.000;0.000;2023-04-24T02:00:06;99604.84;;;11.70;57.36
76858;BME280;65830;0.000;0.000;2023-04-24T02:02:41;99605.53;;;11.72;56.71
76858;BME280;65830;0.000;0.000;2023-04-24T02:05:07;99608.09;;;11.64;57.33
76858;BME280;65830;0.000;0.000;2023-04-24T02:07:35;99600.53;;;11.59;57.40
76858;BME280;65830;0.000;0.000;2023-04-24T02:10:01;99612.63;;;11.53;57.87
76858;BME280;65830;0.000;0.000;2023-04-24T02:12:26;99609.69;;;11.47;57.71
76858;BME280;65830;0.000;0.000;2023-04-24T02:14:52;99610.69;;;11.46;58.29
76858;BME280;65830;0.000;0.000;2023-04-24T02:17:18;99598.38;;;11.45;56.87
76858;BME280;65830;0.000;0.000;2023-04-24T02:19:44;99597.00;;;11.41;57.51
76858;BME280;65830;0.000;0.000;2023-04-24T02:22:10;99596.44;;;11.37;58.46
76858;BME280;65830;0.000;0.000;2023-04-24T02:24:36;99594.97;;;11.25;58.48
76858;BME280;65830;0.000;0.000;2023-04-24T02:27:01;99597.19;;;11.20;58.56
76858;BME280;65830;0.000;0.000;2023-04-24T02:29:28;99585.84;;;11.27;57.07
76858;BME280;65830;0.000;0.000;2023-04-24T02:31:53;99581.69;;;11.25;58.51
76858;BME280;65830;0.000;0.000;2023-04-24T02:34:19;99587.69;;;11.27;58.73
76858;BME280;65830;0.000;0.000;2023-04-24T02:36:44;99583.91;;;11.20;58.32
76858;BME280;65830;0.000;0.000;2023-04-24T02:39:10;99579.16;;;11.23;58.34
76858;BME280;65830;0.000;0.000;2023-04-24T02:41:35;99580.00;;;11.24;58.63
76858;BME280;65830;0.000;0.000;2023-04-24T02:44:01;99583.63;;;11.23;58.20
76858;BME280;65830;0.000;0.000;2023-04-24T02:46:27;99587.56;;;11.19;59.19
76858;BME280;65830;0.000;0.000;2023-04-24T02:48:52;99579.75;;;11.17;57.69
76858;BME280;65830;0.000;0.000;2023-04-24T02:51:18;99583.66;;;11.13;58.93
76858;BME280;65830;0.000;0.000;2023-04-24T02:53:43;99580.88;;;11.15;59.26
76858;BME280;65830;0.000;0.000;2023-04-24T02:56:21;99571.91;;;11.16;58.82
76858;BME280;65830;0.000;0.000;2023-04-24T02:59:58;99589.00;;;11.03;59.45
76858;BME280;65830;0.000;0.000;2023-04-24T03:10:09;99584.28;;;10.97;59.33
76858;BME280;65830;0.000;0.000;2023-04-24T03:13:23;99576.03;;;11.00;59.99
76858;BME280;65830;0.000;0.000;2023-04-24T03:16:02;99588.16;;;11.03;58.59
76858;BME280;65830;0.000;0.000;2023-04-24T03:18:50;99590.16;;;10.91;59.29
76858;BME280;65830;0.000;0.000;2023-04-24T03:21:35;99589.84;;;10.94;59.73
76858;BME280;65830;0.000;0.000;2023-04-24T03:24:19;99590.56;;;10.96;58.81
76858;BME280;65830;0.000;0.000;2023-04-24T03:30:31;99598.81;;;10.93;58.15
76858;BME280;65830;0.000;0.000;2023-04-24T03:33:10;99597.69;;;10.96;59.85
76858;BME280;65830;0.000;0.000;2023-04-24T03:36:38;99599.50;;;10.95;59.49
76858;BME280;65830;0.000;0.000;2023-04-24T03:39:26;99606.34;;;10.88;59.35
76858;BME280;65830;0.000;0.000;2023-04-24T03:45:20;99602.84;;;10.97;59.69
76858;BME280;65830;0.000;0.000;2023-04-24T03:48:02;99599.50;;;10.95;59.00
76858;BME280;65830;0.000;0.000;2023-04-24T03:51:01;99592.66;;;10.92;60.06
76858;BME280;65830;0.000;0.000;2023-04-24T03:53:35;99597.13;;;10.92;60.15
76858;BME280;65830;0.000;0.000;2023-04-24T03:56:03;99587.63;;;10.89;60.45
76858;BME280;65830;0.000;0.000;2023-04-24T03:58:40;99593.50;;;10.93;58.92
76858;BME280;65830;0.000;0.000;2023-04-24T04:01:06;99596.72;;;10.97;59.66
76858;BME280;65830;0.000;0.000;2023-04-24T04:04:00;99600.06;;;10.99;59.55
76858;BME280;65830;0.000;0.000;2023-04-24T04:06:28;99590.97;;;11.01;58.60
76858;BME280;65830;0.000;0.000;2023-04-24T04:08:56;99606.63;;;11.04;57.97
76858;BME280;65830;0.000;0.000;2023-04-24T04:11:44;99607.00;;;11.09;58.52
76858;BME280;65830;0.000;0.000;2023-04-24T04:14:49;99610.34;;;11.11;59.20
76858;BME280;65830;0.000;0.000;2023-04-24T04:17:43;99615.66;;;11.11;59.91
76858;BME280;65830;0.000;0.000;2023-04-24T04:20:36;99616.22;;;11.15;59.47
76858;BME280;65830;0.000;0.000;2023-04-24T04:24:11;99625.31;;;11.22;60.19
76858;BME280;65830;0.000;0.000;2023-04-24T04:26:41;99622.38;;;11.16;59.33
76858;BME280;65830;0.000;0.000;2023-04-24T04:29:13;99625.56;;;11.19;59.92
76858;BME280;65830;0.000;0.000;2023-04-24T04:31:42;99626.97;;;11.23;59.70
76858;BME280;65830;0.000;0.000;2023-04-24T04:34:11;99633.13;;;11.24;57.83
76858;BME280;65830;0.000;0.000;2023-04-24T04:36:38;99627.25;;;11.30;59.29
76858;BME280;65830;0.000;0.000;2023-04-24T04:39:18;99631.16;;;11.26;58.99
76858;BME280;65830;0.000;0.000;2023-04-24T04:41:53;99626.69;;;11.26;59.23
76858;BME280;65830;0.000;0.000;2023-04-24T04:44:21;99618.72;;;11.26;59.27
76858;BME280;65830;0.000;0.000;2023-04-24T04:46:46;99626.56;;;11.28;58.76
76858;BME280;65830;0.000;0.000;2023-04-24T04:49:25;99632.97;;;11.25;58.61
76858;BME280;65830;0.000;0.000;2023-04-24T04:51:53;99628.50;;;11.26;58.82
76858;BME280;65830;0.000;0.000;2023-04-24T04:54:20;99632.53;;;11.40;58.93
76858;BME280;65830;0.000;0.000;2023-04-24T04:56:45;99629.53;;;11.52;58.04
76858;BME280;65830;0.000;0.000;2023-04-24T04:59:11;99617.22;;;11.51;58.09
76858;BME280;65830;0.000;0.000;2023-04-24T05:01:38;99623.50;;;11.60;58.07
76858;BME280;65830;0.000;0.000;2023-04-24T05:04:06;99616.91;;;11.64;58.32
76858;BME280;65830;0.000;0.000;2023-04-24T05:06:32;99610.06;;;11.62;57.78
76858;BME280;65830;0.000;0.000;2023-04-24T05:08:58;99607.78;;;11.67;57.42
76858;BME280;65830;0.000;0.000;2023-04-24T05:11:31;99604.41;;;11.75;57.56
76858;BME280;65830;0.000;0.000;2023-04-24T05:13:59;99617.22;;;11.89;57.85
76858;BME280;65830;0.000;0.000;2023-04-24T05:16:33;99616.47;;;11.97;57.36
76858;BME280;65830;0.000;0.000;2023-04-24T05:18:59;99609.09;;;11.90;56.73
76858;BME280;65830;0.000;0.000;2023-04-24T05:21:29;99610.78;;;11.91;57.48
76858;BME280;65830;0.000;0.000;2023-04-24T05:23:56;99609.94;;;11.91;56.81
76858;BME280;65830;0.000;0.000;2023-04-24T05:26:40;99603.72;;;12.00;57.21
76858;BME280;65830;0.000;0.000;2023-04-24T05:29:07;99601.16;;;12.08;56.46
76858;BME280;65830;0.000;0.000;2023-04-24T05:31:32;99591.59;;;12.16;56.95
76858;BME280;65830;0.000;0.000;2023-04-24T05:33:58;99588.63;;;12.19;56.01
76858;BME280;65830;0.000;0.000;2023-04-24T05:36:24;99590.78;;;12.33;56.82
76858;BME280;65830;0.000;0.000;2023-04-24T05:38:50;99589.69;;;12.26;56.92
76858;BME280;65830;0.000;0.000;2023-04-24T05:41:15;99574.63;;;12.35;56.18
76858;BME280;65830;0.000;0.000;2023-04-24T05:43:41;99581.41;;;12.47;56.16
76858;BME280;65830;0.000;0.000;2023-04-24T05:46:06;99581.78;;;12.52;56.36
76858;BME280;65830;0.000;0.000;2023-04-24T05:48:32;99584.50;;;12.60;56.36
76858;BME280;65830;0.000;0.000;2023-04-24T05:51:00;99584.91;;;12.65;56.92
76858;BME280;65830;0.000;0.000;2023-04-24T05:53:26;99584.28;;;12.71;56.31
76858;BME280;65830;0.000;0.000;2023-04-24T05:55:52;99583.78;;;12.76;56.54
76858;BME280;65830;0.000;0.000;2023-04-24T05:58:18;99578.94;;;12.71;55.61
76858;BME280;65830;0.000;0.000;2023-04-24T06:00:46;99577.72;;;12.66;56.60
76858;BME280;65830;0.000;0.000;2023-04-24T06:03:12;99584.91;;;12.65;56.62
76858;BME280;65830;0.000;0.000;2023-04-24T06:05:37;99589.81;;;12.60;56.92
76858;BME280;65830;0.000;0.000;2023-04-24T06:08:03;99589.63;;;12.54;58.39
76858;BME280;65830;0.000;0.000;2023-04-24T06:10:33;99585.38;;;12.61;57.39
76858;BME280;65830;0.000;0.000;2023-04-24T06:12:59;99598.50;;;12.62;57.58
76858;BME280;65830;0.000;0.000;2023-04-24T06:15:29;99596.09;;;12.51;57.92
76858;BME280;65830;0.000;0.000;2023-04-24T06:18:04;99596.69;;;12.63;57.61
76858;BME280;65830;0.000;0.000;2023-04-24T06:20:29;99586.19;;;12.61;57.94
76858;BME280;65830;0.000;0.000;2023-04-24T06:22:55;99590.28;;;12.74;57.66
76858;BME280;65830;0.000;0.000;2023-04-24T06:25:20;99584.72;;;12.85;57.96
76858;BME280;65830;0.000;0.000;2023-04-24T06:27:46;99592.38;;;12.88;57.81
76858;BME280;65830;0.000;0.000;2023-04-24T06:30:11;99583.47;;;12.97;57.74
76858;BME280;65830;0.000;0.000;2023-04-24T06:32:37;99585.69;;;13.10;56.47
76858;BME280;65830;0.000;0.000;2023-04-24T06:35:03;99587.94;;;13.23;56.39
76858;BME280;65830;0.000;0.000;2023-04-24T06:37:29;99593.34;;;13.31;56.42
76858;BME280;65830;0.000;0.000;2023-04-24T06:39:55;99593.34;;;13.31;55.97
76858;BME280;65830;0.000;0.000;2023-04-24T06:42:20;99593.75;;;13.44;56.48
76858;BME280;65830;0.000;0.000;2023-04-24T06:44:48;99590.63;;;13.49;55.41
76858;BME280;65830;0.000;0.000;2023-04-24T06:47:14;99589.09;;;13.46;56.39
76858;BME280;65830;0.000;0.000;2023-04-24T06:49:40;99585.00;;;13.60;55.83
76858;BME280;65830;0.000;0.000;2023-04-24T06:52:06;99592.66;;;13.63;56.15
76858;BME280;65830;0.000;0.000;2023-04-24T06:54:34;99594.53;;;13.71;55.72
76858;BME280;65830;0.000;0.000;2023-04-24T06:57:00;99595.88;;;13.75;55.91
76858;BME280;65830;0.000;0.000;2023-04-24T06:59:29;99597.97;;;13.89;55.27
76858;BME280;65830;0.000;0.000;2023-04-24T07:01:55;99595.63;;;13.95;54.63
76858;BME280;65830;0.000;0.000;2023-04-24T07:04:20;99596.97;;;13.99;55.20
76858;BME280;65830;0.000;0.000;2023-04-24T07:06:46;99600.66;;;13.98;54.26
76858;BME280;65830;0.000;0.000;2023-04-24T07:09:12;99593.44;;;13.90;54.79
76858;BME280;65830;0.000;0.000;2023-04-24T07:11:47;99598.28;;;13.95;54.75
76858;BME280;65830;0.000;0.000;2023-04-24T07:14:13;99601.06;;;13.77;55.17
76858;BME280;65830;0.000;0.000;2023-04-24T07:16:38;99605.97;;;13.89;55.02
76858;BME280;65830;0.000;0.000;2023-04-24T07:19:04;99608.63;;;13.89;54.16
76858;BME280;65830;0.000;0.000;2023-04-24T07:21:30;99600.97;;;13.95;54.29
76858;BME280;65830;0.000;0.000;2023-04-24T07:23:56;99595.63;;;13.95;54.50
76858;BME280;65830;0.000;0.000;2023-04-24T07:26:21;99590.69;;;14.16;54.39
76858;BME280;65830;0.000;0.000;2023-04-24T07:28:47;99589.88;;;14.40;54.06
76858;BME280;65830;0.000;0.000;2023-04-24T07:31:12;99595.09;;;14.66;53.46
76858;BME280;65830;0.000;0.000;2023-04-24T07:33:38;99591.41;;;14.84;52.40
76858;BME280;65830;0.000;0.000;2023-04-24T07:36:03;99586.56;;;14.87;52.75
76858;BME280;65830;0.000;0.000;2023-04-24T07:38:29;99597.09;;;14.89;52.14
76858;BME280;65830;0.000;0.000;2023-04-24T07:40:55;99598.75;;;14.82;52.61
76858;BME280;65830;0.000;0.000;2023-04-24T07:43:21;99589.75;;;14.83;53.04
76858;BME280;65830;0.000;0.000;2023-04-24T07:45:47;99594.25;;;14.82;52.71
76858;BME280;65830;0.000;0.000;2023-04-24T07:48:12;99591.59;;;14.91;52.51
76858;BME280;65830;0.000;0.000;2023-04-24T07:50:41;99591.09;;;14.95;52.54
76858;BME280;65830;0.000;0.000;2023-04-24T07:53:07;99591.22;;;15.10;52.55
76858;BME280;65830;0.000;0.000;2023-04-24T07:55:35;99583.50;;;15.23;52.13
76858;BME280;65830;0.000;0.000;2023-04-24T07:58:00;99589.31;;;15.35;51.56
76858;BME280;65830;0.000;0.000;2023-04-24T08:00:26;99579.09;;;15.47;51.52
76858;BME280;65830;0.000;0.000;2023-04-24T08:02:51;99580.34;;;15.67;51.22
76858;BME280;65830;0.000;0.000;2023-04-24T08:05:17;99564.06;;;15.85;50.56
76858;BME280;65830;0.000;0.000;2023-04-24T08:07:42;99568.06;;;15.89;50.59
76858;BME280;65830;0.000;0.000;2023-04-24T08:10:09;99573.38;;;15.98;51.06
76858;BME280;65830;0.000;0.000;2023-04-24T08:12:36;99579.19;;;16.10;50.03
76858;BME280;65830;0.000;0.000;2023-04-24T08:15:02;99569.59;;;16.15;49.74
76858;BME280;65830;0.000;0.000;2023-04-24T08:17:27;99566.25;;;16.13;49.52
76858;BME280;65830;0.000;0.000;2023-04-24T08:19:53;99565.59;;;16.11;50.38
76858;BME280;65830;0.000;0.000;2023-04-24T08:22:26;99565.69;;;15.95;49.90
76858;BME280;65830;0.000;0.000;2023-04-24T08:24:52;99568.59;;;15.85;50.41
76858;BME280;65830;0.000;0.000;2023-04-24T08:27:18;99557.72;;;15.86;50.24
76858;BME280;65830;0.000;0.000;2023-04-24T08:29:43;99549.69;;;15.86;50.85
76858;BME280;65830;0.000;0.000;2023-04-24T08:32:09;99545.16;;;15.87;50.92
76858;BME280;65830;0.000;0.000;2023-04-24T08:34:34;99540.66;;;15.87;51.24
76858;BME280;65830;0.000;0.000;2023-04-24T08:37:00;99542.16;;;15.90;51.39
76858;BME280;65830;0.000;0.000;2023-04-24T08:39:25;99541.72;;;16.01;51.56
76858;BME280;65830;0.000;0.000;2023-04-24T08:41:51;99529.88;;;16.04;51.35
76858;BME280;65830;0.000;0.000;2023-04-24T08:44:17;99531.28;;;16.15;50.74
76858;BME280;65830;0.000;0.000;2023-04-24T08:46:44;99528.78;;;16.13;51.06
76858;BME280;65830;0.000;0.000;2023-04-24T08:49:13;99525.38;;;16.19;51.51
76858;BME280;65830;0.000;0.000;2023-04-24T08:51:39;99526.72;;;16.23;50.57
76858;BME280;65830;0.000;0.000;2023-04-24T08:54:04;99526.75;;;16.38;50.14
76858;BME280;65830;0.000;0.000;2023-04-24T08:56:30;99523.50;;;16.51;50.42
76858;BME280;65830;0.000;0.000;2023-04-24T08:58:58;99511.03;;;16.58;50.82
76858;BME280;65830;0.000;0.000;2023-04-24T09:01:24;99515.56;;;16.73;50.11
76858;BME280;65830;0.000;0.000;2023-04-24T09:03:50;99515.22;;;16.76;50.14
76858;BME280;65830;0.000;0.000;2023-04-24T09:06:17;99509.22;;;16.74;49.92
76858;BME280;65830;0.000;0.000;2023-04-24T09:08:43;99508.47;;;16.80;50.44
76858;BME280;65830;0.000;0.000;2023-04-24T09:11:09;99504.09;;;16.87;49.96
76858;BME280;65830;0.000;0.000;2023-04-24T09:13:35;99504.78;;;16.81;49.47
76858;BME280;65830;0.000;0.000;2023-04-24T09:16:00;99510.13;;;16.66;49.73
76858;BME280;65830;0.000;0.000;2023-04-24T09:18:26;99512.63;;;16.67;50.02
76858;BME280;65830;0.000;0.000;2023-04-24T09:20:58;99505.50;;;16.75;49.91
76858;BME280;65830;0.000;0.000;2023-04-24T09:23:26;99500.19;;;16.90;49.59
76858;BME280;65830;0.000;0.000;2023-04-24T09:25:54;99506.59;;;17.03;50.11
76858;BME280;65830;0.000;0.000;2023-04-24T09:28:20;99498.91;;;17.00;49.74
76858;BME280;65830;0.000;0.000;2023-04-24T09:31:01;99506.28;;;16.98;50.30
76858;BME280;65830;0.000;0.000;2023-04-24T09:33:27;99495.22;;;17.01;50.16
76858;BME280;65830;0.000;0.000;2023-04-24T09:35:52;99493.84;;;17.05;49.77
76858;BME280;65830;0.000;0.000;2023-04-24T09:38:18;99484.75;;;17.06;49.89
76858;BME280;65830;0.000;0.000;2023-04-24T09:40:43;99480.78;;;17.17;49.93
76858;BME280;65830;0.000;0.000;2023-04-24T09:43:12;99483.09;;;17.20;49.97
76858;BME280;65830;0.000;0.000;2023-04-24T09:45:38;99479.41;;;17.21;50.28
76858;BME280;65830;0.000;0.000;2023-04-24T09:48:04;99473.00;;;17.37;49.97
76858;BME280;65830;0.000;0.000;2023-04-24T09:50:31;99481.34;;;17.42;50.08
76858;BME280;65830;0.000;0.000;2023-04-24T09:52:58;99472.06;;;17.45;49.75
76858;BME280;65830;0.000;0.000;2023-04-24T09:55:24;99473.53;;;17.47;48.98
76858;BME280;65830;0.000;0.000;2023-04-24T09:57:57;99458.59;;;17.60;48.66
76858;BME280;65830;0.000;0.000;2023-04-24T10:00:32;99456.56;;;17.62;48.32
76858;BME280;65830;0.000;0.000;2023-04-24T10:03:02;99455.72;;;17.76;49.56
76858;BME280;65830;0.000;0.000;2023-04-24T10:05:34;99460.22;;;17.76;48.41
76858;BME280;65830;0.000;0.000;2023-04-24T10:08:01;99458.19;;;17.78;47.84
76858;BME280;65830;0.000;0.000;2023-04-24T10:10:28;99469.25;;;17.68;48.42
76858;BME280;65830;0.000;0.000;2023-04-24T10:12:54;99454.78;;;17.69;48.62
76858;BME280;65830;0.000;0.000;2023-04-24T10:15:20;99449.06;;;17.72;48.64
76858;BME280;65830;0.000;0.000;2023-04-24T10:17:47;99450.59;;;17.81;48.97
76858;BME280;65830;0.000;0.000;2023-04-24T10:20:21;99452.03;;;17.99;48.50
76858;BME280;65830;0.000;0.000;2023-04-24T10:22:51;99449.34;;;17.99;48.17
76858;BME280;65830;0.000;0.000;2023-04-24T10:25:18;99442.50;;;17.96;48.14
76858;BME280;65830;0.000;0.000;2023-04-24T10:27:44;99438.59;;;17.99;48.26
76858;BME280;65830;0.000;0.000;2023-04-24T10:30:11;99437.06;;;18.11;48.25
76858;BME280;65830;0.000;0.000;2023-04-24T10:32:37;99427.84;;;18.20;48.01
76858;BME280;65830;0.000;0.000;2023-04-24T10:35:03;99431.81;;;18.24;48.38
76858;BME280;65830;0.000;0.000;2023-04-24T10:37:28;99429.59;;;18.35;48.48
76858;BME280;65830;0.000;0.000;2023-04-24T10:40:00;99422.00;;;18.38;48.46
76858;BME280;65830;0.000;0.000;2023-04-24T10:42:27;99416.81;;;18.37;48.15
76858;BME280;65830;0.000;0.000;2023-04-24T10:44:52;99408.75;;;18.37;48.05
76858;BME280;65830;0.000;0.000;2023-04-24T10:47:19;99414.59;;;18.47;47.82
76858;BME280;65830;0.000;0.000;2023-04-24T10:49:45;99396.06;;;18.52;47.25
76858;BME280;65830;0.000;0.000;2023-04-24T10:52:10;99397.34;;;18.63;47.51
76858;BME280;65830;0.000;0.000;2023-04-24T10:59:43;99388.47;;;18.97;47.50
76858;BME280;65830;0.000;0.000;2023-04-24T11:02:09;99387.25;;;19.07;47.18
76858;BME280;65830;0.000;0.000;2023-04-24T11:04:35;99372.63;;;19.22;46.55
76858;BME280;65830;0.000;0.000;2023-04-24T11:07:04;99374.13;;;19.38;46.95
76858;BME280;65830;0.000;0.000;2023-04-24T11:09:30;99373.13;;;19.53;46.40
76858;BME280;65830;0.000;0.000;2023-04-24T11:12:03;99378.94;;;19.70;46.22
76858;BME280;65830;0.000;0.000;2023-04-24T11:14:30;99376.72;;;19.80;45.90
76858;BME280;65830;0.000;0.000;2023-04-24T11:16:55;99369.91;;;19.91;44.78
76858;BME280;65830;0.000;0.000;2023-04-24T11:19:25;99363.88;;;20.29;45.22
76858;BME280;65830;0.000;0.000;2023-04-24T11:21:55;99366.72;;;20.47;44.82
76858;BME280;65830;0.000;0.000;2023-04-24T11:34:47;99347.03;;;21.12;42.59
76858;BME280;65830;0.000;0.000;2023-04-24T11:37:13;99351.38;;;21.58;42.73
76858;BME280;65830;0.000;0.000;2023-04-24T11:39:40;99341.25;;;21.78;41.74
76858;BME280;65830;0.000;0.000;2023-04-24T11:42:05;99348.16;;;21.74;41.85
76858;BME280;65830;0.000;0.000;2023-04-24T11:44:33;99336.47;;;22.31;40.98
76858;BME280;65830;0.000;0.000;2023-04-24T11:46:59;99337.50;;;22.85;40.56
76858;BME280;65830;0.000;0.000;2023-04-24T11:49:24;99331.06;;;23.35;39.95
76858;BME280;65830;0.000;0.000;2023-04-24T11:51:50;99328.13;;;23.78;38.74
76858;BME280;65830;0.000;0.000;2023-04-24T11:54:20;99308.34;;;24.13;37.30
76858;BME280;65830;0.000;0.000;2023-04-24T11:56:46;99318.22;;;24.67;36.77
76858;BME280;65830;0.000;0.000;2023-04-24T11:59:12;99305.56;;;24.84;36.28
76858;BME280;65830;0.000;0.000;2023-04-24T12:01:47;99295.63;;;24.90;36.95
76858;BME280;65830;0.000;0.000;2023-04-24T12:04:13;99300.72;;;25.44;36.59
76858;BME280;65830;0.000;0.000;2023-04-24T12:06:39;99289.75;;;25.39;36.56
76858;BME280;65830;0.000;0.000;2023-04-24T12:09:05;99287.03;;;25.89;34.81
76858;BME280;65830;0.000;0.000;2023-04-24T12:11:30;99281.47;;;26.57;33.47
76858;BME280;65830;0.000;0.000;2023-04-24T12:13:56;99273.31;;;27.28;33.41
76858;BME280;65830;0.000;0.000;2023-04-24T12:16:21;99274.63;;;28.28;32.35
76858;BME280;65830;0.000;0.000;2023-04-24T12:18:47;99258.63;;;29.46;30.49
76858;BME280;65830;0.000;0.000;2023-04-24T12:21:19;99254.69;;;30.29;28.36
76858;BME280;65830;0.000;0.000;2023-04-24T12:23:45;99247.78;;;30.47;27.91
76858;BME280;65830;0.000;0.000;2023-04-24T12:26:12;99238.59;;;30.82;28.95
76858;BME280;65830;0.000;0.000;2023-04-24T12:28:41;99237.19;;;30.20;28.19
76858;BME280;65830;0.000;0.000;2023-04-24T12:31:06;99230.63;;;30.16;28.13
76858;BME280;65830;0.000;0.000;2023-04-24T12:33:33;99227.31;;;30.29;28.02
76858;BME280;65830;0.000;0.000;2023-04-24T12:35:59;99215.97;;;29.65;28.95
76858;BME280;65830;0.000;0.000;2023-04-24T12:38:26;99217.59;;;29.51;29.52
76858;BME280;65830;0.000;0.000;2023-04-24T12:41:08;99205.50;;;28.75;30.20
76858;BME280;65830;0.000;0.000;2023-04-24T12:43:34;99212.38;;;29.08;29.67
76858;BME280;65830;0.000;0.000;2023-04-24T12:45:59;99201.72;;;29.07;30.15
76858;BME280;65830;0.000;0.000;2023-04-24T12:48:26;99201.72;;;28.86;30.20
76858;BME280;65830;0.000;0.000;2023-04-24T12:50:51;99189.97;;;28.07;30.58
76858;BME280;65830;0.000;0.000;2023-04-24T12:53:17;99185.88;;;28.05;31.01
76858;BME280;65830;0.000;0.000;2023-04-24T12:55:43;99180.81;;;27.81;31.71
76858;BME280;65830;0.000;0.000;2023-04-24T12:58:09;99171.56;;;27.40;31.97
76858;BME280;65830;0.000;0.000;2023-04-24T13:00:35;99172.09;;;27.42;31.85
76858;BME280;65830;0.000;0.000;2023-04-24T13:03:01;99167.34;;;26.94;32.66
76858;BME280;65830;0.000;0.000;2023-04-24T13:05:27;99177.41;;;26.67;32.87
76858;BME280;65830;0.000;0.000;2023-04-24T13:07:53;99169.03;;;26.51;33.28
76858;BME280;65830;0.000;0.000;2023-04-24T13:10:19;99161.72;;;26.74;33.12
76858;BME280;65830;0.000;0.000;2023-04-24T13:12:45;99153.78;;;26.72;33.06
76858;BME280;65830;0.000;0.000;2023-04-24T13:15:11;99157.78;;;26.65;33.34
76858;BME280;65830;0.000;0.000;2023-04-24T13:17:37;99147.59;;;26.55;33.42
76858;BME280;65830;0.000;0.000;2023-04-24T13:20:02;99146.50;;;26.78;33.01
76858;BME280;65830;0.000;0.000;2023-04-24T13:22:28;99143.50;;;26.80;33.31
76858;BME280;65830;0.000;0.000;2023-04-24T13:24:54;99149.38;;;26.66;33.51
76858;BME280;65830;0.000;0.000;2023-04-24T13:27:20;99149.94;;;26.68;33.30
76858;BME280;65830;0.000;0.000;2023-04-24T13:29:45;99150.03;;;26.29;33.64
76858;BME280;65830;0.000;0.000;2023-04-24T13:32:11;99153.53;;;26.25;34.01
76858;BME280;65830;0.000;0.000;2023-04-24T13:34:37;99152.50;;;26.31;33.19
76858;BME280;65830;0.000;0.000;2023-04-24T13:37:03;99150.66;;;26.59;32.99
76858;BME280;65830;0.000;0.000;2023-04-24T13:39:29;99154.19;;;26.59;32.15
76858;BME280;65830;0.000;0.000;2023-04-24T13:41:55;99144.50;;;26.68;32.48
76858;BME280;65830;0.000;0.000;2023-04-24T13:44:21;99141.66;;;26.85;32.12
76858;BME280;65830;0.000;0.000;2023-04-24T13:46:48;99149.91;;;26.95;32.05
76858;BME280;65830;0.000;0.000;2023-04-24T13:49:14;99142.28;;;26.98;32.56
76858;BME280;65830;0.000;0.000;2023-04-24T13:51:40;99133.75;;;26.84;31.44
76858;BME280;65830;0.000;0.000;2023-04-24T13:54:05;99130.97;;;26.51;32.64
76858;BME280;65830;0.000;0.000;2023-04-24T13:56:31;99120.63;;;26.53;32.16
76858;BME280;65830;0.000;0.000;2023-04-24T13:58:56;99120.41;;;26.82;32.56
76858;BME280;65830;0.000;0.000;2023-04-24T14:01:22;99115.94;;;27.03;32.62
76858;BME280;65830;0.000;0.000;2023-04-24T14:03:54;99110.50;;;27.36;31.82
76858;BME280;65830;0.000;0.000;2023-04-24T14:06:21;99102.44;;;27.56;30.99
76858;BME280;65830;0.000;0.000;2023-04-24T14:08:47;99108.13;;;27.49;31.63
76858;BME280;65830;0.000;0.000;2023-04-24T14:11:13;99102.38;;;27.46;31.69
76858;BME280;65830;0.000;0.000;2023-04-24T14:13:39;99102.06;;;27.05;31.33